Terminal Aerodrome Forecast
Issued by NWS

Home | Current Version | Previous Version | Text Only | Print | Product List | Glossary On
Versions: 1 2 3 4 5 6 7 8 9 10 11 12 13 14 15 16 17
000
FTUS42 KTBW 092300
TAFPIE
TAF
KPIE 092338Z 1000/1024 VRB04KT P6SM BKN250
     FM101600 03004KT P6SM VCTS SCT035CB BKN250
     FM101900 31005KT P6SM VCTS SCT035CB=

USA.gov is the U.S. government's official web portal to all federal, state and local government web resources and services.